sensor_id;sensor_type;location;lat;lon;timestamp;pressure;altitude;pressure_sealevel;temperature;humidity
61113;BME280;47184;57.998;56.184;2023-01-29T12:32:34;100164.59;;;-6.60;87.97
61113;BME280;47184;57.998;56.184;2023-01-29T12:38:02;100152.47;;;-5.80;88.96
61113;BME280;47184;57.998;56.184;2023-01-29T12:40:36;100146.75;;;-5.64;87.81
61113;BME280;47184;57.998;56.184;2023-01-29T12:43:15;100120.44;;;-5.71;86.22
61113;BME280;47184;57.998;56.184;2023-01-29T12:45:56;100137.22;;;-5.37;85.95
61113;BME280;47184;57.998;56.184;2023-01-29T12:48:40;100163.81;;;-5.15;84.49
61113;BME280;47184;57.998;56.184;2023-01-29T12:51:16;100147.22;;;-5.06;83.97
61113;BME280;47184;57.998;56.184;2023-01-29T12:53:58;100154.47;;;-4.94;83.57
61113;BME280;47184;57.998;56.184;2023-01-29T12:56:46;100159.00;;;-5.01;82.37
61113;BME280;47184;57.998;56.184;2023-01-29T12:59:34;100116.06;;;-5.22;82.08
61113;BME280;47184;57.998;56.184;2023-01-29T13:02:37;100154.31;;;-4.91;81.82
61113;BME280;47184;57.998;56.184;2023-01-29T13:05:17;100177.84;;;-4.78;81.60
61113;BME280;47184;57.998;56.184;2023-01-29T13:07:53;100140.19;;;-5.03;81.48
61113;BME280;47184;57.998;56.184;2023-01-29T13:10:27;100152.84;;;-4.96;81.14
61113;BME280;47184;57.998;56.184;2023-01-29T13:13:30;100072.88;;;-5.37;80.79
61113;BME280;47184;57.998;56.184;2023-01-29T13:15:59;100122.03;;;-5.00;80.62
61113;BME280;47184;57.998;56.184;2023-01-29T13:18:42;100168.28;;;-4.75;80.68
61113;BME280;47184;57.998;56.184;2023-01-29T13:21:15;100170.28;;;-4.81;80.22
61113;BME280;47184;57.998;56.184;2023-01-29T13:23:59;100189.00;;;-5.00;79.68
61113;BME280;47184;57.998;56.184;2023-01-29T13:26:28;100161.84;;;-5.08;79.68
61113;BME280;47184;57.998;56.184;2023-01-29T13:28:56;100176.69;;;-5.15;79.25
61113;BME280;47184;57.998;56.184;2023-01-29T13:31:26;100183.94;;;-5.03;78.96
61113;BME280;47184;57.998;56.184;2023-01-29T13:36:33;100139.34;;;-5.49;78.26
61113;BME280;47184;57.998;56.184;2023-01-29T13:39:05;100186.09;;;-5.14;78.41
61113;BME280;47184;57.998;56.184;2023-01-29T13:41:38;100191.53;;;-4.98;78.35
61113;BME280;47184;57.998;56.184;2023-01-29T13:44:33;100188.63;;;-4.90;77.91
61113;BME280;47184;57.998;56.184;2023-01-29T13:47:09;100184.53;;;-4.72;77.55
61113;BME280;47184;57.998;56.184;2023-01-29T13:49:42;100164.31;;;-4.83;77.86
61113;BME280;47184;57.998;56.184;2023-01-29T13:52:20;100179.91;;;-4.64;77.66
61113;BME280;47184;57.998;56.184;2023-01-29T13:55:00;100185.59;;;-4.56;77.27
61113;BME280;47184;57.998;56.184;2023-01-29T14:00:05;100180.56;;;-4.81;76.88
61113;BME280;47184;57.998;56.184;2023-01-29T14:02:33;100156.03;;;-4.90;76.65
61113;BME280;47184;57.998;56.184;2023-01-29T14:08:51;100125.03;;;-4.88;76.84
61113;BME280;47184;57.998;56.184;2023-01-29T14:11:34;100165.78;;;-4.76;76.27
61113;BME280;47184;57.998;56.184;2023-01-29T14:14:00;100180.75;;;-4.64;76.66
61113;BME280;47184;57.998;56.184;2023-01-29T14:16:34;100144.63;;;-4.84;76.41
61113;BME280;47184;57.998;56.184;2023-01-29T14:19:04;100145.56;;;-4.87;76.05
61113;BME280;47184;57.998;56.184;2023-01-29T14:21:37;100169.19;;;-4.76;76.10
61113;BME280;47184;57.998;56.184;2023-01-29T14:24:14;100164.09;;;-4.77;76.25
61113;BME280;47184;57.998;56.184;2023-01-29T14:26:53;100189.38;;;-4.65;76.03
61113;BME280;47184;57.998;56.184;2023-01-29T14:29:27;100178.06;;;-4.61;76.30
61113;BME280;47184;57.998;56.184;2023-01-29T14:32:21;100152.97;;;-4.78;76.14
61113;BME280;47184;57.998;56.184;2023-01-29T14:37:43;100174.75;;;-4.64;76.23
61113;BME280;47184;57.998;56.184;2023-01-29T14:40:22;100173.22;;;-4.68;76.12
61113;BME280;47184;57.998;56.184;2023-01-29T14:43:00;100168.53;;;-4.59;76.24
61113;BME280;47184;57.998;56.184;2023-01-29T14:45:35;100161.81;;;-4.63;75.97
61113;BME280;47184;57.998;56.184;2023-01-29T14:55:39;100160.13;;;-4.64;76.17
61113;BME280;47184;57.998;56.184;2023-01-29T14:58:21;100113.25;;;-4.94;76.09
61113;BME280;47184;57.998;56.184;2023-01-29T15:00:52;100116.38;;;-4.86;75.65
61113;BME280;47184;57.998;56.184;2023-01-29T15:03:42;100139.91;;;-4.73;76.01
61113;BME280;47184;57.998;56.184;2023-01-29T15:06:15;100105.22;;;-4.86;75.96
61113;BME280;47184;57.998;56.184;2023-01-29T15:08:54;100189.78;;;-4.54;75.57
61113;BME280;47184;57.998;56.184;2023-01-29T15:11:31;100170.78;;;-4.51;75.86
61113;BME280;47184;57.998;56.184;2023-01-29T15:14:05;100149.31;;;-4.72;75.79
61113;BME280;47184;57.998;56.184;2023-01-29T15:19:30;100136.69;;;-4.58;75.75
61113;BME280;47184;57.998;56.184;2023-01-29T15:24:33;100144.56;;;-4.61;75.72
61113;BME280;47184;57.998;56.184;2023-01-29T15:26:59;100146.88;;;-4.55;76.06
61113;BME280;47184;57.998;56.184;2023-01-29T15:29:26;100147.88;;;-4.57;76.05
61113;BME280;47184;57.998;56.184;2023-01-29T15:31:54;100140.13;;;-4.57;76.63
61113;BME280;47184;57.998;56.184;2023-01-29T15:34:20;100124.06;;;-4.64;76.76
61113;BME280;47184;57.998;56.184;2023-01-29T15:36:47;100141.53;;;-4.50;76.90
61113;BME280;47184;57.998;56.184;2023-01-29T15:39:18;100136.28;;;-4.47;76.81
61113;BME280;47184;57.998;56.184;2023-01-29T15:41:46;100089.44;;;-4.79;77.27
61113;BME280;47184;57.998;56.184;2023-01-29T15:44:17;100139.69;;;-4.46;77.15
61113;BME280;47184;57.998;56.184;2023-01-29T15:46:56;100101.28;;;-4.73;77.25
61113;BME280;47184;57.998;56.184;2023-01-29T15:49:34;100139.28;;;-4.58;77.76
61113;BME280;47184;57.998;56.184;2023-01-29T15:52:13;100127.78;;;-4.71;77.97
61113;BME280;47184;57.998;56.184;2023-01-29T15:54:41;100135.94;;;-4.60;77.91
61113;BME280;47184;57.998;56.184;2023-01-29T15:57:20;100134.25;;;-4.61;78.33
61113;BME280;47184;57.998;56.184;2023-01-29T15:59:48;100117.81;;;-4.58;77.98
61113;BME280;47184;57.998;56.184;2023-01-29T16:02:36;100132.56;;;-4.62;78.12
61113;BME280;47184;57.998;56.184;2023-01-29T16:05:12;100126.47;;;-4.59;78.19
61113;BME280;47184;57.998;56.184;2023-01-29T16:07:39;100119.38;;;-4.54;78.46
61113;BME280;47184;57.998;56.184;2023-01-29T16:10:19;100121.00;;;-4.52;78.37
61113;BME280;47184;57.998;56.184;2023-01-29T16:12:47;100114.69;;;-4.65;78.87
61113;BME280;47184;57.998;56.184;2023-01-29T16:15:31;100120.06;;;-4.71;79.07
61113;BME280;47184;57.998;56.184;2023-01-29T16:17:58;100103.06;;;-4.75;79.02
61113;BME280;47184;57.998;56.184;2023-01-29T16:20:44;100101.13;;;-4.70;78.74
61113;BME280;47184;57.998;56.184;2023-01-29T16:23:17;100052.28;;;-4.93;78.68
61113;BME280;47184;57.998;56.184;2023-01-29T16:25:45;100060.13;;;-4.96;78.73
61113;BME280;47184;57.998;56.184;2023-01-29T16:28:12;100108.47;;;-4.81;79.29
61113;BME280;47184;57.998;56.184;2023-01-29T16:30:38;100093.53;;;-4.73;79.17
61113;BME280;47184;57.998;56.184;2023-01-29T16:33:06;100101.78;;;-4.65;79.05
61113;BME280;47184;57.998;56.184;2023-01-29T16:35:37;100105.41;;;-4.69;79.12
61113;BME280;47184;57.998;56.184;2023-01-29T16:38:29;100107.38;;;-4.76;79.22
61113;BME280;47184;57.998;56.184;2023-01-29T16:44:02;100093.91;;;-4.62;78.76
61113;BME280;47184;57.998;56.184;2023-01-29T16:46:48;100067.72;;;-4.71;79.01
61113;BME280;47184;57.998;56.184;2023-01-29T16:54:41;100056.19;;;-4.63;79.11
61113;BME280;47184;57.998;56.184;2023-01-29T16:57:21;100079.50;;;-4.45;78.94
61113;BME280;47184;57.998;56.184;2023-01-29T16:59:49;100035.38;;;-4.79;79.21
61113;BME280;47184;57.998;56.184;2023-01-29T17:02:26;100080.88;;;-4.37;78.57
61113;BME280;47184;57.998;56.184;2023-01-29T17:04:56;100056.06;;;-4.39;78.75
61113;BME280;47184;57.998;56.184;2023-01-29T17:07:24;100010.66;;;-4.62;78.70
61113;BME280;47184;57.998;56.184;2023-01-29T17:09:54;100085.44;;;-4.23;78.29
61113;BME280;47184;57.998;56.184;2023-01-29T17:12:23;100032.16;;;-4.43;78.61
61113;BME280;47184;57.998;56.184;2023-01-29T17:15:00;100052.34;;;-4.53;78.83
61113;BME280;47184;57.998;56.184;2023-01-29T17:17:33;100011.75;;;-4.68;78.85
61113;BME280;47184;57.998;56.184;2023-01-29T17:20:17;100038.03;;;-4.60;78.81
61113;BME280;47184;57.998;56.184;2023-01-29T17:22:43;100041.31;;;-4.36;78.66
61113;BME280;47184;57.998;56.184;2023-01-29T17:25:13;100049.88;;;-4.35;78.88
61113;BME280;47184;57.998;56.184;2023-01-29T17:27:41;100046.06;;;-4.27;78.74
61113;BME280;47184;57.998;56.184;2023-01-29T17:30:15;100038.78;;;-4.37;79.17
61113;BME280;47184;57.998;56.184;2023-01-29T17:32:42;99994.16;;;-4.58;79.02
61113;BME280;47184;57.998;56.184;2023-01-29T17:35:11;100034.94;;;-4.27;78.86
61113;BME280;47184;57.998;56.184;2023-01-29T17:37:39;100035.56;;;-4.22;78.99
61113;BME280;47184;57.998;56.184;2023-01-29T17:40:27;100032.03;;;-4.19;78.63
61113;BME280;47184;57.998;56.184;2023-01-29T17:42:54;100007.19;;;-4.22;78.74
61113;BME280;47184;57.998;56.184;2023-01-29T17:45:21;100013.34;;;-4.25;78.34
61113;BME280;47184;57.998;56.184;2023-01-29T17:47:49;99940.00;;;-4.57;78.19
61113;BME280;47184;57.998;56.184;2023-01-29T17:50:23;99939.00;;;-4.54;78.04
61113;BME280;47184;57.998;56.184;2023-01-29T17:52:50;99999.97;;;-4.14;78.13
61113;BME280;47184;57.998;56.184;2023-01-29T17:55:17;99941.06;;;-4.42;78.01
61113;BME280;47184;57.998;56.184;2023-01-29T17:57:46;100001.25;;;-4.04;77.96
61113;BME280;47184;57.998;56.184;2023-01-29T18:00:13;100013.38;;;-3.87;78.15
61113;BME280;47184;57.998;56.184;2023-01-29T18:02:41;99880.50;;;-4.71;78.15
61113;BME280;47184;57.998;56.184;2023-01-29T18:05:08;99971.69;;;-4.15;78.44
61113;BME280;47184;57.998;56.184;2023-01-29T18:07:36;100018.97;;;-3.96;78.70
61113;BME280;47184;57.998;56.184;2023-01-29T18:10:03;100015.38;;;-3.93;78.37
61113;BME280;47184;57.998;56.184;2023-01-29T18:12:33;100009.47;;;-3.95;78.87
61113;BME280;47184;57.998;56.184;2023-01-29T18:15:00;99916.72;;;-4.55;78.45
61113;BME280;47184;57.998;56.184;2023-01-29T18:17:27;99994.09;;;-4.17;78.92
61113;BME280;47184;57.998;56.184;2023-01-29T18:19:57;99980.59;;;-4.22;78.78
61113;BME280;47184;57.998;56.184;2023-01-29T18:22:24;100008.59;;;-4.15;79.32
61113;BME280;47184;57.998;56.184;2023-01-29T18:24:50;99962.72;;;-4.46;79.25
61113;BME280;47184;57.998;56.184;2023-01-29T18:27:17;99998.78;;;-4.07;79.20
61113;BME280;47184;57.998;56.184;2023-01-29T18:29:44;99976.88;;;-4.17;78.94
61113;BME280;47184;57.998;56.184;2023-01-29T18:32:10;99934.06;;;-4.59;79.55
61113;BME280;47184;57.998;56.184;2023-01-29T18:34:37;99911.53;;;-4.74;79.67
61113;BME280;47184;57.998;56.184;2023-01-29T18:37:03;99901.94;;;-4.70;79.47
61113;BME280;47184;57.998;56.184;2023-01-29T18:39:29;99970.91;;;-4.17;79.30
61113;BME280;47184;57.998;56.184;2023-01-29T18:41:55;99949.97;;;-4.49;79.90
61113;BME280;47184;57.998;56.184;2023-01-29T18:44:21;99960.84;;;-4.42;79.91
61113;BME280;47184;57.998;56.184;2023-01-29T18:46:47;99989.56;;;-4.31;80.00
61113;BME280;47184;57.998;56.184;2023-01-29T18:49:14;99953.88;;;-4.40;79.84
61113;BME280;47184;57.998;56.184;2023-01-29T18:51:40;99976.09;;;-4.38;79.97
61113;BME280;47184;57.998;56.184;2023-01-29T18:54:06;99916.56;;;-4.71;79.71
61113;BME280;47184;57.998;56.184;2023-01-29T18:56:32;99952.56;;;-4.30;79.66
61113;BME280;47184;57.998;56.184;2023-01-29T18:58:58;99950.81;;;-4.49;79.85
61113;BME280;47184;57.998;56.184;2023-01-29T19:01:25;99969.53;;;-4.25;79.94
61113;BME280;47184;57.998;56.184;2023-01-29T19:03:54;99968.97;;;-4.12;79.38
61113;BME280;47184;57.998;56.184;2023-01-29T19:06:24;99919.22;;;-4.54;79.77
61113;BME280;47184;57.998;56.184;2023-01-29T19:08:51;99932.63;;;-4.45;80.08
61113;BME280;47184;57.998;56.184;2023-01-29T19:11:18;99906.50;;;-4.57;79.79
61113;BME280;47184;57.998;56.184;2023-01-29T19:13:44;99922.31;;;-4.45;79.89
61113;BME280;47184;57.998;56.184;2023-01-29T19:16:11;99923.19;;;-4.45;80.26
61113;BME280;47184;57.998;56.184;2023-01-29T19:18:45;99955.22;;;-4.32;79.94
61113;BME280;47184;57.998;56.184;2023-01-29T19:21:24;99952.84;;;-4.36;80.23
61113;BME280;47184;57.998;56.184;2023-01-29T19:23:51;99929.91;;;-4.42;80.33
61113;BME280;47184;57.998;56.184;2023-01-29T19:26:17;99916.16;;;-4.62;80.48
61113;BME280;47184;57.998;56.184;2023-01-29T19:28:43;99872.03;;;-4.73;80.02
61113;BME280;47184;57.998;56.184;2023-01-29T19:31:09;99938.28;;;-4.37;80.74
61113;BME280;47184;57.998;56.184;2023-01-29T19:33:36;99899.66;;;-4.58;80.18
61113;BME280;47184;57.998;56.184;2023-01-29T19:36:02;99802.38;;;-5.09;80.26
61113;BME280;47184;57.998;56.184;2023-01-29T19:38:28;99927.47;;;-4.45;80.32
61113;BME280;47184;57.998;56.184;2023-01-29T19:40:59;99946.72;;;-4.34;80.73
61113;BME280;47184;57.998;56.184;2023-01-29T19:43:28;99923.72;;;-4.38;80.22
61113;BME280;47184;57.998;56.184;2023-01-29T19:45:58;99938.16;;;-4.15;80.34
61113;BME280;47184;57.998;56.184;2023-01-29T19:48:25;99939.25;;;-4.21;80.29
61113;BME280;47184;57.998;56.184;2023-01-29T19:50:57;99950.44;;;-4.20;80.41
61113;BME280;47184;57.998;56.184;2023-01-29T19:53:24;99951.81;;;-4.13;80.09
61113;BME280;47184;57.998;56.184;2023-01-29T19:56:00;99940.66;;;-4.14;80.35
61113;BME280;47184;57.998;56.184;2023-01-29T19:58:27;99913.06;;;-4.31;79.99
61113;BME280;47184;57.998;56.184;2023-01-29T20:00:58;99943.78;;;-4.26;80.00
61113;BME280;47184;57.998;56.184;2023-01-29T20:03:26;99944.78;;;-4.10;79.96
61113;BME280;47184;57.998;56.184;2023-01-29T20:05:54;99924.16;;;-4.10;79.58
61113;BME280;47184;57.998;56.184;2023-01-29T20:08:21;99941.22;;;-4.07;79.88
61113;BME280;47184;57.998;56.184;2023-01-29T20:10:48;99917.53;;;-4.34;80.08
61113;BME280;47184;57.998;56.184;2023-01-29T20:13:14;99911.13;;;-4.26;79.98
61113;BME280;47184;57.998;56.184;2023-01-29T20:15:45;99936.56;;;-4.18;80.24
61113;BME280;47184;57.998;56.184;2023-01-29T20:18:12;99918.00;;;-4.26;80.29
61113;BME280;47184;57.998;56.184;2023-01-29T20:20:42;99918.50;;;-4.18;80.10
61113;BME280;47184;57.998;56.184;2023-01-29T20:23:09;99931.66;;;-4.05;79.75
61113;BME280;47184;57.998;56.184;2023-01-29T20:25:37;99921.28;;;-4.22;80.13
61113;BME280;47184;57.998;56.184;2023-01-29T20:28:04;99909.09;;;-4.38;80.19
61113;BME280;47184;57.998;56.184;2023-01-29T20:30:35;99874.38;;;-4.50;80.44
61113;BME280;47184;57.998;56.184;2023-01-29T20:33:03;99915.66;;;-4.31;80.03
61113;BME280;47184;57.998;56.184;2023-01-29T20:35:29;99936.13;;;-4.09;80.12
61113;BME280;47184;57.998;56.184;2023-01-29T20:37:56;99912.59;;;-4.20;79.91
61113;BME280;47184;57.998;56.184;2023-01-29T20:40:22;99890.97;;;-4.17;79.75
61113;BME280;47184;57.998;56.184;2023-01-29T20:42:49;99931.34;;;-4.16;79.82
61113;BME280;47184;57.998;56.184;2023-01-29T20:45:15;99879.22;;;-4.23;79.49
61113;BME280;47184;57.998;56.184;2023-01-29T20:47:41;99872.59;;;-4.29;79.69
61113;BME280;47184;57.998;56.184;2023-01-29T20:50:12;99913.56;;;-4.04;79.14
61113;BME280;47184;57.998;56.184;2023-01-29T20:52:40;99865.41;;;-4.22;79.03
61113;BME280;47184;57.998;56.184;2023-01-29T20:55:08;99913.63;;;-4.05;79.02
61113;BME280;47184;57.998;56.184;2023-01-29T20:57:36;99875.84;;;-4.25;79.22
61113;BME280;47184;57.998;56.184;2023-01-29T21:00:04;99903.47;;;-4.27;79.47
61113;BME280;47184;57.998;56.184;2023-01-29T21:02:31;99863.13;;;-4.28;78.94
61113;BME280;47184;57.998;56.184;2023-01-29T21:04:57;99840.50;;;-4.59;79.47
61113;BME280;47184;57.998;56.184;2023-01-29T21:07:24;99899.75;;;-4.21;79.24
61113;BME280;47184;57.998;56.184;2023-01-29T21:09:50;99883.19;;;-4.35;79.42
61113;BME280;47184;57.998;56.184;2023-01-29T21:12:16;99892.72;;;-4.18;79.13
61113;BME280;47184;57.998;56.184;2023-01-29T21:14:42;99915.84;;;-3.97;78.82
61113;BME280;47184;57.998;56.184;2023-01-29T21:17:08;99923.59;;;-3.97;78.57
61113;BME280;47184;57.998;56.184;2023-01-29T21:19:34;99917.66;;;-4.18;79.00
61113;BME280;47184;57.998;56.184;2023-01-29T21:22:00;99905.53;;;-4.35;78.80
61113;BME280;47184;57.998;56.184;2023-01-29T21:24:26;99896.41;;;-4.42;78.42
61113;BME280;47184;57.998;56.184;2023-01-29T21:26:52;99925.63;;;-4.04;78.52
61113;BME280;47184;57.998;56.184;2023-01-29T21:29:18;99914.66;;;-4.09;78.20
61113;BME280;47184;57.998;56.184;2023-01-29T21:31:44;99891.06;;;-4.19;77.86
61113;BME280;47184;57.998;56.184;2023-01-29T21:34:10;99918.84;;;-4.07;77.76
61113;BME280;47184;57.998;56.184;2023-01-29T21:36:38;99895.25;;;-4.16;77.61
61113;BME280;47184;57.998;56.184;2023-01-29T21:39:04;99909.72;;;-4.14;77.46
61113;BME280;47184;57.998;56.184;2023-01-29T21:41:51;99915.00;;;-4.17;77.21
61113;BME280;47184;57.998;56.184;2023-01-29T21:44:36;99868.63;;;-4.36;77.18
61113;BME280;47184;57.998;56.184;2023-01-29T21:47:03;99905.25;;;-4.29;77.07
61113;BME280;47184;57.998;56.184;2023-01-29T21:49:42;99885.91;;;-4.38;76.90
61113;BME280;47184;57.998;56.184;2023-01-29T21:52:10;99878.88;;;-4.34;76.71
61113;BME280;47184;57.998;56.184;2023-01-29T21:54:37;99904.59;;;-4.33;76.47
61113;BME280;47184;57.998;56.184;2023-01-29T21:57:06;99874.13;;;-4.43;76.18
61113;BME280;47184;57.998;56.184;2023-01-29T21:59:35;99882.63;;;-4.60;75.74
61113;BME280;47184;57.998;56.184;2023-01-29T22:02:01;99880.00;;;-4.79;75.49
61113;BME280;47184;57.998;56.184;2023-01-29T22:04:27;99879.25;;;-4.81;75.58
61113;BME280;47184;57.998;56.184;2023-01-29T22:06:54;99905.50;;;-4.73;75.40
61113;BME280;47184;57.998;56.184;2023-01-29T22:09:20;99895.84;;;-4.68;75.11
61113;BME280;47184;57.998;56.184;2023-01-29T22:11:46;99885.94;;;-4.77;74.87
61113;BME280;47184;57.998;56.184;2023-01-29T22:14:13;99890.00;;;-4.53;74.41
61113;BME280;47184;57.998;56.184;2023-01-29T22:16:43;99885.19;;;-4.60;73.91
61113;BME280;47184;57.998;56.184;2023-01-29T22:19:11;99902.81;;;-4.51;74.27
61113;BME280;47184;57.998;56.184;2023-01-29T22:21:37;99871.19;;;-4.55;74.54
61113;BME280;47184;57.998;56.184;2023-01-29T22:24:03;99864.84;;;-4.85;74.37
61113;BME280;47184;57.998;56.184;2023-01-29T22:26:29;99861.94;;;-4.59;74.33
61113;BME280;47184;57.998;56.184;2023-01-29T22:28:57;99890.34;;;-4.41;74.28
61113;BME280;47184;57.998;56.184;2023-01-29T22:31:23;99865.91;;;-4.52;73.86
61113;BME280;47184;57.998;56.184;2023-01-29T22:33:49;99884.75;;;-4.70;74.10
61113;BME280;47184;57.998;56.184;2023-01-29T22:36:15;99863.00;;;-4.83;74.44
61113;BME280;47184;57.998;56.184;2023-01-29T22:38:41;99861.38;;;-4.65;74.20
61113;BME280;47184;57.998;56.184;2023-01-29T22:41:07;99854.56;;;-4.47;74.08
61113;BME280;47184;57.998;56.184;2023-01-29T22:43:35;99871.34;;;-4.39;73.68
61113;BME280;47184;57.998;56.184;2023-01-29T22:46:08;99879.84;;;-4.18;73.68
61113;BME280;47184;57.998;56.184;2023-01-29T22:48:34;99850.09;;;-4.63;74.15
61113;BME280;47184;57.998;56.184;2023-01-29T22:51:01;99877.59;;;-4.26;73.97
61113;BME280;47184;57.998;56.184;2023-01-29T22:53:54;99873.56;;;-4.31;73.86
61113;BME280;47184;57.998;56.184;2023-01-29T22:56:23;99867.03;;;-4.38;73.79
61113;BME280;47184;57.998;56.184;2023-01-29T22:58:54;99838.28;;;-4.48;73.79
61113;BME280;47184;57.998;56.184;2023-01-29T23:01:25;99861.16;;;-4.23;73.69
61113;BME280;47184;57.998;56.184;2023-01-29T23:03:52;99783.69;;;-4.94;72.96
61113;BME280;47184;57.998;56.184;2023-01-29T23:06:19;99854.00;;;-4.35;73.55
61113;BME280;47184;57.998;56.184;2023-01-29T23:08:47;99847.16;;;-4.55;73.66
61113;BME280;47184;57.998;56.184;2023-01-29T23:11:17;99857.28;;;-4.32;73.25
61113;BME280;47184;57.998;56.184;2023-01-29T23:13:50;99838.97;;;-4.44;73.28
61113;BME280;47184;57.998;56.184;2023-01-29T23:16:18;99840.63;;;-4.43;73.30
61113;BME280;47184;57.998;56.184;2023-01-29T23:18:48;99858.81;;;-4.28;73.20
61113;BME280;47184;57.998;56.184;2023-01-29T23:21:15;99853.09;;;-4.34;72.79
61113;BME280;47184;57.998;56.184;2023-01-29T23:23:41;99827.81;;;-4.64;72.94
61113;BME280;47184;57.998;56.184;2023-01-29T23:26:09;99842.91;;;-4.37;73.37
61113;BME280;47184;57.998;56.184;2023-01-29T23:28:55;99854.56;;;-4.29;72.94
61113;BME280;47184;57.998;56.184;2023-01-29T23:31:21;99828.44;;;-4.40;73.31
61113;BME280;47184;57.998;56.184;2023-01-29T23:33:47;99872.78;;;-4.33;73.05
61113;BME280;47184;57.998;56.184;2023-01-29T23:36:13;99841.09;;;-4.54;73.34
61113;BME280;47184;57.998;56.184;2023-01-29T23:38:39;99822.09;;;-4.70;73.68
61113;BME280;47184;57.998;56.184;2023-01-29T23:41:05;99825.38;;;-4.67;73.66
61113;BME280;47184;57.998;56.184;2023-01-29T23:43:33;99813.53;;;-4.71;73.86
61113;BME280;47184;57.998;56.184;2023-01-29T23:45:59;99832.06;;;-4.82;74.34
61113;BME280;47184;57.998;56.184;2023-01-29T23:48:25;99813.88;;;-4.97;74.69
61113;BME280;47184;57.998;56.184;2023-01-29T23:50:51;99803.63;;;-4.99;74.38
61113;BME280;47184;57.998;56.184;2023-01-29T23:53:17;99834.22;;;-4.54;74.33
61113;BME280;47184;57.998;56.184;2023-01-29T23:56:03;99810.59;;;-4.82;74.58
61113;BME280;47184;57.998;56.184;2023-01-29T23:58:30;99751.88;;;-5.32;74.75
